Air Resources Laboratory banner image
Air Resources Laboratory web site National Oceanic and Atmospheric Administration (NOAA)

ny metar


KALB 222251Z 17016G21KT 10SM FEW025 BKN041 OVC048 16/09 A2995 RMK AO2 RAE25
 SLP144 BINOVC P0000 T01560094=
KART 222256Z AUTO 20005KT 8SM BKN025 BKN065 OVC090 17/17 A2986 RMK AO2 SLP108
 T01670167=
KBGM 222253Z 17007KT 6SM BR OVC003 13/13 A2994 RMK AO2 LTG DSNT W AND NW SLP139
 T01330128=
KBNL 222255Z AUTO 15006KT 10SM FEW018 25/22 A3007 RMK AO2=
KBUF 222254Z 22010KT 7SM OVC003 14/14 A2992 RMK AO2 SLP132 T01440139=
KDKK 222253Z AUTO 22005KT 7SM FEW006 SCT060 BKN100 18/16 A2992 RMK AO2 SLP130
 T01780161=
KDSV 222254Z AUTO 28007KT 10SM FEW035 OVC110 23/16 A2990 RMK AO2 SLP132
 T02280156 $=
KELM 222253Z 06006KT 9SM -TSRA FEW013 BKN025 OVC037 19/18 A2990 RMK AO2 LTG
 DSNT NE AND E RAE00B25 TSB14 SLP123 P0047 T01940183=
KELZ 222256Z AUTO 29006KT 10SM -RA FEW024 SCT050 BKN090 21/17 A2996 RMK AO2 LTG
 DSNT SE-W RAE11B43 SLP140 P0000 T02060172=
KFOK 222253Z 11003KT 9SM -RA BKN027 OVC049 14/12 A3006 RMK AO2 SLP179 P0002
 T01390122=
KFRG 222253Z 14005KT 10SM RA FEW010 OVC021 14/13 A3003 RMK AO2 SLP169 P0000
 T01440133=
KFZY 222254Z AUTO 29010KT 10SM OVC014 17/14 A2989 RMK AO2 RAE01B09E18 SLP121
 P0000 T01670144=
KGFL 222253Z AUTO 18010KT 10SM OVC013 15/14 A2994 RMK AO2 SLP140 T01500139=
KGTB 222256Z 15007KT 10SM OVC005 15/15 A2986 RMK AO2A DZE01 SLP112 P0000
 T01510151=
KHPN 222256Z 12003KT 10SM FEW018 BKN026 OVC032 13/11 A3003 RMK AO2 SLP168
 T01280111=
KHTO 222255Z AUTO 13005KT 7SM -RA SCT030 BKN050 OVC070 13/11 A3004 RMK AO2
 P0007 T01250110=
KHWV 222256Z AUTO 00000KT 10SM SCT008 OVC028 14/14 A3005 RMK AO2 RAE51 SLP174
 P0001 T01440139=
KIAG 222253Z 04003KT 8SM BKN011 BKN032 18/14 A2991 RMK AO2 SLP127 T01830139=
KISP 222256Z 11004KT 8SM -RA BKN009 BKN017 OVC030 14/13 A3003 RMK AO2 RAE26B49
 SLP169 P0000 T01440133=
KITH 222256Z 16011G20KT 10SM TS SCT047 18/16 A2990 RMK AO2 TSB32 SLP121 OCNL
 LTG CC N TS N MOV E T01780161=
KJFK 222251Z 08005KT 6SM BR FEW008 BKN018 OVC023 14/14 A3004 RMK AO2
 RAE2152B24E36 SLP172 P0000 T01440139=
KJHW 222256Z AUTO 30008KT 9SM BKN010 OVC015 19/17 A2996 RMK AO2 LTG DSNT E CIG
 008V013 SLP143 T01890172=
KLGA 222251Z 05004KT 6SM BR OVC008 14/12 A3003 RMK AO2 RAB28E43 SLP168 P0000
 T01390117 $=
KMGJ 222254Z AUTO 00000KT 10SM SCT012 OVC025 14/12 A3000 RMK AO2 SLP159
 T01440122=
KMSS 222253Z AUTO 05008KT 5SM -RA BR OVC006 14/14 A2990 RMK AO2 RAB2155 CIG
 003V010 SLP125 P0005 T01440144=
KMTP 222254Z AUTO 00000KT 13/13 A3006 RMK AO1 SLP179 P0007 T01330128=
KNYC 222251Z AUTO 00000KT 5SM BR OVC013 14/13 A3005 RMK AO2 RAB15E32 SLP168
 P0000 T01390128 $=
KOGS 222255Z AUTO 08004KT 2SM -RA OVC005 15/15 A2987 RMK AO2 T01510145=
KOLE 222255Z AUTO 28003KT 10SM SCT014 SCT021 BKN036 17/17 A2996 RMK AO2=
KPBG 222253Z AUTO 16011KT 10SM -RA FEW006 OVC055 14/13 A2989 RMK AO2 RAE00B15
 SLP123 P0000 T01390133=
KPEO 222253Z AUTO 31007KT 10SM FEW045 SCT060 22/18 A2989 RMK AO2 SLP117
 T02220178=
KPOU 222253Z 19003KT 10SM BKN019 BKN030 OVC041 15/12 A3001 RMK AO2 SLP157
 T01500117=
KRME 222253Z 09007KT 10SM -RA OVC020 15/14 A2991=
KROC 222254Z 35011KT 10SM BKN009 OVC022 17/16 A2991 RMK AO2 SLP131 T01720156=
KSCH 222255Z 19007KT 10SM OVC036 16/11 A2995=
KSLK 222251Z AUTO 00000KT 2SM -RA BR BKN005 OVC010 12/12 A2988 RMK AO2 CIG
 003V008 SLP121 P0006 T01220122=
KSWF 222245Z 27005KT 10SM SCT010 OVC030 14/13 A3002=
KSYR 222254Z 34005KT 6SM -RA BR BKN025 OVC030 18/18 A2987 RMK AO2 LTG DSNT SW
 RAE2155B34 SLP113 P0000 T01780178=